KASE/ASE METAR and TAF weather

Enter ICAO airport designator
Station Type Date Time Source
KASE METAR 2019/06/16 06:53 UTC NOAA

KASE 160653Z AUTO 10SM CLR 09/03 A3020 RMK AO2 SLP113 T00890028 402390039


Station Type Date Time Source
KASE Decoded METAR 2019/06/16 06:53 UTC NOAA

ASPEN-PITKIN COUNTY AIRPORT, CO, United States (KASE) 39-14N 106-52W 2354M
Jun 16, 2019 - 02:53 AM EDT / 2019.06.16 0653 UTC
Visibility: 10 mile(s):0
Sky conditions: clear
Temperature: 48.0 F (8.9 C)
Dew Point: 37.0 F (2.8 C)
Relative Humidity: 65%
Pressure (altimeter): 30.2 in. Hg (1022 hPa)
ob: KASE 160653Z AUTO 10SM CLR 09/03 A3020 RMK AO2 SLP113 T00890028 402390039
cycle: 7

Station Type Date Time Source
KASE TAF 2019/06/16 06:30 UTC NOAA

TAF KASE 160527Z 1606/1706 16008KT P6SM FEW070 FEW250
TEMPO 1606/1608 14010G17KT
FM160800 20006KT P6SM FEW070 FEW250
FM161400 VRB05KT P6SM SCT060 BKN120
FM161900 31008KT P6SM VCSH SCT060 BKN120
FM170000 VRB06KT P6SM FEW070 FEW120

Example: see airport list